createdAt,value
2017-08-17T00:01:22.901Z,21.40
2017-08-17T00:03:50.759Z,22.37
2017-08-17T00:06:18.368Z,21.50
2017-08-17T00:08:45.884Z,23.10
2017-08-17T00:11:13.391Z,21.80
2017-08-17T00:13:40.931Z,22.60
2017-08-17T00:16:08.438Z,21.80
2017-08-17T00:18:35.955Z,21.40
2017-08-17T00:21:03.492Z,20.83
2017-08-17T00:23:31.010Z,22.17
2017-08-17T00:25:58.522Z,22.43
2017-08-17T00:28:26.055Z,21.23
2017-08-17T00:30:53.572Z,22.80
2017-08-17T00:33:21.078Z,22.37
2017-08-17T00:35:48.624Z,21.70
2017-08-17T00:38:16.131Z,23.70
2017-08-17T00:40:43.640Z,20.10
2017-08-17T00:43:11.166Z,21.63
2017-08-17T00:45:38.678Z,20.77
2017-08-17T00:48:06.186Z,18.90
2017-08-17T00:50:33.715Z,18.50
2017-08-17T00:53:01.221Z,16.70
2017-08-17T00:55:28.730Z,17.37
2017-08-17T00:57:56.263Z,15.90
2017-08-17T01:00:23.735Z,17.30
2017-08-17T01:02:51.279Z,15.60
2017-08-17T01:05:18.819Z,14.93
2017-08-17T01:07:46.331Z,16.40
2017-08-17T01:10:13.847Z,16.20
2017-08-17T01:12:41.378Z,17.30
2017-08-17T01:15:08.887Z,16.20
2017-08-17T01:17:36.399Z,16.90
2017-08-17T01:20:03.931Z,16.90
2017-08-17T01:22:31.446Z,18.80
2017-08-17T01:24:58.963Z,20.03
2017-08-17T01:27:26.502Z,19.90
2017-08-17T01:29:54.018Z,20.33
2017-08-17T01:32:21.895Z,20.27
2017-08-17T01:34:49.431Z,19.93
2017-08-17T01:37:16.939Z,20.00
2017-08-17T01:39:44.451Z,20.40
2017-08-17T01:42:11.995Z,20.03
2017-08-17T01:44:39.504Z,20.93
2017-08-17T01:47:31.797Z,18.17
2017-08-17T01:49:59.315Z,20.67
2017-08-17T01:52:26.819Z,23.23
2017-08-17T01:54:54.351Z,20.40
2017-08-17T01:57:21.863Z,20.33
2017-08-17T01:59:49.367Z,24.57
2017-08-17T02:02:16.906Z,25.03
2017-08-17T02:04:44.419Z,28.77
2017-08-17T02:07:11.931Z,33.33
2017-08-17T02:09:39.470Z,29.60
2017-08-17T02:12:06.982Z,30.43
2017-08-17T02:14:34.503Z,34.03
2017-08-17T02:17:02.045Z,31.07
2017-08-17T02:19:29.558Z,31.07
2017-08-17T02:21:57.070Z,30.40
2017-08-17T02:24:24.606Z,26.87
2017-08-17T02:26:52.163Z,29.00
2017-08-17T02:29:19.687Z,25.33
2017-08-17T02:31:47.207Z,25.80
2017-08-17T02:34:14.747Z,22.17
2017-08-17T02:36:42.258Z,23.33
2017-08-17T02:39:09.776Z,21.37
2017-08-17T02:41:37.335Z,21.87
2017-08-17T02:44:04.846Z,20.27
2017-08-17T02:46:32.363Z,21.00
2017-08-17T02:48:59.903Z,19.73
2017-08-17T02:51:27.410Z,20.80
2017-08-17T02:53:54.927Z,20.40
2017-08-17T02:56:22.467Z,20.77
2017-08-17T02:58:49.984Z,23.50
2017-08-17T03:01:17.504Z,26.13
2017-08-17T03:03:45.059Z,26.63
2017-08-17T03:06:12.579Z,26.60
2017-08-17T03:08:40.119Z,29.97
2017-08-17T03:11:07.671Z,31.37
2017-08-17T03:13:35.184Z,32.07
2017-08-17T03:16:02.695Z,30.47
2017-08-17T03:18:30.190Z,29.13
2017-08-17T03:20:57.724Z,29.30
2017-08-17T03:23:25.238Z,30.13
2017-08-17T03:25:52.771Z,31.00
2017-08-17T03:28:20.292Z,29.17
2017-08-17T03:30:47.798Z,29.27
2017-08-17T03:33:15.339Z,28.13
2017-08-17T03:35:42.847Z,27.50
2017-08-17T03:38:10.364Z,28.27
2017-08-17T03:40:37.899Z,28.27
2017-08-17T03:43:05.484Z,27.03
2017-08-17T03:45:32.999Z,27.30
2017-08-17T03:48:00.535Z,27.67
2017-08-17T03:50:28.043Z,28.23
2017-08-17T03:52:55.555Z,27.57
2017-08-17T03:55:23.108Z,28.63
2017-08-17T03:57:50.620Z,27.03
2017-08-17T04:00:18.134Z,27.73
2017-08-17T04:02:45.667Z,25.60
2017-08-17T04:05:13.182Z,27.90
2017-08-17T04:07:40.697Z,28.03
2017-08-17T04:10:08.245Z,28.43
2017-08-17T04:12:35.770Z,24.33
2017-08-17T04:15:03.289Z,24.73
2017-08-17T04:17:30.819Z,24.67
2017-08-17T04:19:58.331Z,26.47
2017-08-17T04:22:25.874Z,23.40
2017-08-17T04:24:53.382Z,26.17
2017-08-17T04:27:20.895Z,23.23
2017-08-17T04:29:48.431Z,23.00
2017-08-17T04:32:15.934Z,23.10
2017-08-17T04:34:43.438Z,24.47
2017-08-17T04:37:10.974Z,25.07
2017-08-17T04:39:38.479Z,25.60
2017-08-17T04:42:05.990Z,26.40
2017-08-17T04:44:33.515Z,25.87
2017-08-17T04:47:01.032Z,26.90
2017-08-17T04:49:28.587Z,25.13
2017-08-17T04:51:56.129Z,26.33
2017-08-17T04:54:23.638Z,26.63
2017-08-17T04:59:59.330Z,24.10
2017-08-17T05:02:26.868Z,22.60
2017-08-17T05:04:54.388Z,24.13
2017-08-17T05:07:21.922Z,23.63
2017-08-17T05:09:49.450Z,22.83
2017-08-17T05:12:16.987Z,22.03
2017-08-17T05:14:44.520Z,21.70
2017-08-17T05:17:12.060Z,20.10
2017-08-17T05:19:39.590Z,19.50
2017-08-17T05:22:07.123Z,20.50
2017-08-17T05:24:34.654Z,21.03
2017-08-17T05:27:02.178Z,19.53
2017-08-17T05:29:29.696Z,19.63
2017-08-17T05:31:57.236Z,20.70
2017-08-17T05:34:24.747Z,22.07
2017-08-17T05:36:52.263Z,21.00
2017-08-17T05:39:19.807Z,19.13
2017-08-17T05:41:47.318Z,17.70
2017-08-17T05:44:14.850Z,17.37
2017-08-17T05:46:42.363Z,19.83
2017-08-17T05:49:09.884Z,20.33
2017-08-17T05:51:37.418Z,22.03
2017-08-17T05:54:04.926Z,19.97
2017-08-17T05:56:32.463Z,21.00
2017-08-17T05:58:59.994Z,21.77
2017-08-17T06:01:27.523Z,21.80
2017-08-17T06:03:55.040Z,22.97
2017-08-17T06:06:22.560Z,22.47
2017-08-17T06:08:50.102Z,23.03
2017-08-17T06:11:17.635Z,22.77
2017-08-17T06:13:45.152Z,21.10
2017-08-17T06:16:12.686Z,20.57
2017-08-17T06:18:40.200Z,21.20
2017-08-17T06:21:07.715Z,20.97
2017-08-17T06:23:35.251Z,22.40
2017-08-17T06:26:02.835Z,20.63
2017-08-17T06:28:30.414Z,20.07
2017-08-17T06:30:57.931Z,21.20
2017-08-17T06:33:25.455Z,20.00
2017-08-17T06:35:52.986Z,19.13
2017-08-17T06:38:20.512Z,18.00
2017-08-17T06:40:48.047Z,21.27
2017-08-17T06:43:15.559Z,18.97
2017-08-17T06:45:43.075Z,18.17
2017-08-17T06:48:10.611Z,19.73
2017-08-17T06:50:38.147Z,20.40
2017-08-17T06:53:05.716Z,19.70
2017-08-17T06:55:33.250Z,19.80
2017-08-17T06:58:00.763Z,18.27
2017-08-17T07:00:28.275Z,17.97
2017-08-17T07:02:55.825Z,18.03
2017-08-17T07:05:23.376Z,18.70
2017-08-17T07:07:50.896Z,18.33
2017-08-17T07:10:18.435Z,19.17
2017-08-17T07:12:45.971Z,19.80
2017-08-17T07:15:13.486Z,19.47
2017-08-17T07:17:41.036Z,19.43
2017-08-17T07:20:08.580Z,20.23
2017-08-17T07:22:36.100Z,20.43
2017-08-17T07:25:03.627Z,19.47
2017-08-17T07:27:31.207Z,20.33
2017-08-17T07:29:58.746Z,18.50
2017-08-17T07:32:26.274Z,18.50
2017-08-17T07:34:53.778Z,18.37
2017-08-17T07:37:21.307Z,19.47
2017-08-17T07:39:48.851Z,18.93
2017-08-17T07:42:16.366Z,19.63
2017-08-17T07:44:43.910Z,18.20
2017-08-17T07:47:11.429Z,16.63
2017-08-17T07:49:38.966Z,17.97
2017-08-17T07:52:06.507Z,18.00
2017-08-17T07:54:34.027Z,17.60
2017-08-17T07:57:01.543Z,17.20
2017-08-17T07:59:29.289Z,17.93
2017-08-17T08:01:56.803Z,17.73
2017-08-17T08:04:24.319Z,20.17
2017-08-17T08:06:51.867Z,18.93
2017-08-17T08:09:19.382Z,18.20
2017-08-17T08:11:46.899Z,20.17
2017-08-17T08:14:14.447Z,19.10
2017-08-17T08:16:41.987Z,20.77
2017-08-17T08:19:09.500Z,18.93
2017-08-17T08:21:37.026Z,18.10
2017-08-17T08:24:04.563Z,18.83
2017-08-17T08:26:32.071Z,16.60
2017-08-17T08:28:59.602Z,18.30
2017-08-17T08:31:27.121Z,17.40
2017-08-17T08:33:54.670Z,17.47
2017-08-17T08:36:22.183Z,17.47
2017-08-17T08:38:49.701Z,15.77
2017-08-17T08:41:17.231Z,16.67
2017-08-17T08:43:44.738Z,15.77
2017-08-17T08:46:12.292Z,17.50
2017-08-17T08:48:39.836Z,16.47
2017-08-17T08:51:07.347Z,16.13
2017-08-17T08:53:34.878Z,17.00
2017-08-17T08:56:02.399Z,17.67
2017-08-17T08:58:29.915Z,17.07
2017-08-17T09:00:57.450Z,16.40
2017-08-17T09:03:24.963Z,15.03
2017-08-17T09:05:52.482Z,16.70
2017-08-17T09:08:20.021Z,15.97
2017-08-17T09:10:47.534Z,15.33
2017-08-17T09:13:15.045Z,16.87
2017-08-17T09:15:42.582Z,16.00
2017-08-17T09:18:10.123Z,14.27
2017-08-17T09:20:37.643Z,16.23
2017-08-17T09:23:05.176Z,16.90
2017-08-17T09:25:32.695Z,14.90
2017-08-17T09:28:00.233Z,14.80
2017-08-17T09:30:27.777Z,16.07
2017-08-17T09:32:55.299Z,15.60
2017-08-17T09:35:22.819Z,13.93
2017-08-17T09:37:50.363Z,15.93
2017-08-17T09:40:17.876Z,15.17
2017-08-17T09:42:45.403Z,15.63
2017-08-17T09:45:12.943Z,15.50
2017-08-17T09:47:40.455Z,15.53
2017-08-17T09:50:07.991Z,14.93
2017-08-17T09:52:35.535Z,15.93
2017-08-17T09:55:03.039Z,15.97
2017-08-17T09:57:30.591Z,14.60
2017-08-17T09:59:58.103Z,15.47
2017-08-17T10:02:25.610Z,14.60
2017-08-17T10:04:53.150Z,13.60
2017-08-17T10:07:20.667Z,15.03
2017-08-17T10:09:48.183Z,13.93
2017-08-17T10:12:15.714Z,13.70
2017-08-17T10:14:43.223Z,14.30
2017-08-17T10:17:10.726Z,15.50
2017-08-17T10:19:38.258Z,16.27
2017-08-17T10:22:05.770Z,19.70
2017-08-17T10:24:33.279Z,22.63
2017-08-17T10:27:00.823Z,21.60
2017-08-17T10:29:28.470Z,22.90
2017-08-17T10:31:56.175Z,23.60
2017-08-17T10:34:23.695Z,26.13
2017-08-17T10:36:51.364Z,24.00
2017-08-17T10:39:18.903Z,23.97
2017-08-17T10:41:46.419Z,25.87
2017-08-17T10:44:13.927Z,24.90
2017-08-17T10:46:41.421Z,26.10
2017-08-17T10:49:08.983Z,26.80
2017-08-17T10:51:36.513Z,28.30
2017-08-17T10:54:04.047Z,27.80
2017-08-17T10:56:31.562Z,31.23
2017-08-17T10:58:59.094Z,29.63
2017-08-17T11:01:26.607Z,27.57
2017-08-17T11:03:54.146Z,24.60
2017-08-17T11:06:21.667Z,27.00
2017-08-17T11:08:49.179Z,26.50
2017-08-17T11:11:16.719Z,24.80
2017-08-17T11:13:44.233Z,26.10
2017-08-17T11:16:11.752Z,24.93
2017-08-17T11:18:39.293Z,24.80
2017-08-17T11:21:06.773Z,23.20
2017-08-17T11:23:34.311Z,22.13
2017-08-17T11:26:01.851Z,20.47
2017-08-17T11:28:29.371Z,18.63
2017-08-17T11:30:56.879Z,17.13
2017-08-17T11:33:24.419Z,17.27
2017-08-17T11:35:51.931Z,17.70
2017-08-17T11:38:19.446Z,18.90
2017-08-17T11:40:46.986Z,19.37
2017-08-17T11:43:14.500Z,19.23
2017-08-17T11:45:42.016Z,18.83
2017-08-17T11:48:09.554Z,20.50
2017-08-17T11:50:37.086Z,18.97
2017-08-17T11:53:04.598Z,18.33
2017-08-17T11:55:32.136Z,20.93
2017-08-17T11:57:59.650Z,20.93
2017-08-17T12:00:27.162Z,20.30
2017-08-17T12:02:54.702Z,20.73
2017-08-17T12:05:22.214Z,22.37
2017-08-17T12:07:49.732Z,21.20
2017-08-17T12:10:17.268Z,21.10
2017-08-17T12:12:44.783Z,21.53
2017-08-17T12:15:12.298Z,22.50
2017-08-17T12:17:39.859Z,21.60
2017-08-17T12:20:07.378Z,20.60
2017-08-17T12:22:34.893Z,19.73
2017-08-17T12:25:02.434Z,22.17
2017-08-17T12:27:29.944Z,22.50
2017-08-17T12:29:57.463Z,22.97
2017-08-17T12:32:24.998Z,19.93
2017-08-17T12:34:52.515Z,22.13
2017-08-17T12:37:20.023Z,20.13
2017-08-17T12:39:47.576Z,16.77
2017-08-17T12:42:15.095Z,17.57
2017-08-17T12:44:42.607Z,16.97
2017-08-17T12:47:10.149Z,14.83
2017-08-17T12:49:37.666Z,16.33
2017-08-17T12:52:05.187Z,14.80
2017-08-17T12:54:32.723Z,14.87
2017-08-17T12:57:00.265Z,15.10
2017-08-17T12:59:27.779Z,14.77
2017-08-17T13:01:55.303Z,15.30
2017-08-17T13:04:22.839Z,15.40
2017-08-17T13:06:50.351Z,14.27
2017-08-17T13:09:17.871Z,14.87
2017-08-17T13:11:45.411Z,14.80
2017-08-17T13:14:12.935Z,14.83
2017-08-17T13:16:40.480Z,13.50
2017-08-17T13:19:07.999Z,13.80
2017-08-17T13:21:35.510Z,14.20
2017-08-17T13:24:03.059Z,15.20
2017-08-17T13:26:30.598Z,14.30
2017-08-17T13:28:58.110Z,14.00
2017-08-17T13:31:25.646Z,14.27
2017-08-17T13:33:53.154Z,14.67
2017-08-17T13:36:20.671Z,13.83
2017-08-17T13:38:48.207Z,14.80
2017-08-17T13:41:15.743Z,14.10
2017-08-17T13:43:43.258Z,15.13
2017-08-17T13:46:10.767Z,14.03
2017-08-17T13:48:38.304Z,13.73
2017-08-17T13:51:05.848Z,12.50
2017-08-17T13:53:33.363Z,13.77
2017-08-17T13:56:00.899Z,13.43
2017-08-17T13:58:28.419Z,13.27
2017-08-17T14:00:55.931Z,14.13
2017-08-17T14:03:23.471Z,14.07
2017-08-17T14:05:50.990Z,15.00
2017-08-17T14:08:18.516Z,13.37
2017-08-17T14:10:46.066Z,13.20
2017-08-17T14:13:13.575Z,13.20
2017-08-17T14:15:41.087Z,12.60
2017-08-17T14:18:08.614Z,13.50
2017-08-17T14:20:36.134Z,13.63
2017-08-17T14:23:03.652Z,12.70
2017-08-17T14:25:31.190Z,13.57
2017-08-17T14:27:58.711Z,13.03
2017-08-17T14:30:26.228Z,12.87
2017-08-17T14:32:53.766Z,12.30
2017-08-17T14:35:21.323Z,12.60
2017-08-17T14:37:48.842Z,12.47
2017-08-17T14:40:16.412Z,12.10
2017-08-17T14:42:43.929Z,12.37
2017-08-17T14:45:11.447Z,12.33
2017-08-17T14:47:38.995Z,12.37
2017-08-17T14:50:06.511Z,12.17
2017-08-17T14:52:34.033Z,12.40
2017-08-17T14:55:01.583Z,11.63
2017-08-17T14:57:29.094Z,11.50
2017-08-17T14:59:56.606Z,11.90
2017-08-17T15:02:24.151Z,11.20
2017-08-17T15:04:51.687Z,11.60
2017-08-17T15:07:19.212Z,11.10
2017-08-17T15:09:46.727Z,10.90
2017-08-17T15:12:14.516Z,11.40
2017-08-17T15:14:42.179Z,10.63
2017-08-17T15:17:09.702Z,11.20
2017-08-17T15:19:37.245Z,10.73
2017-08-17T15:22:04.782Z,11.00
2017-08-17T15:24:32.311Z,11.23
2017-08-17T15:26:59.827Z,11.77
2017-08-17T15:29:27.368Z,11.70
2017-08-17T15:31:54.882Z,11.43
2017-08-17T15:34:22.395Z,11.63
2017-08-17T15:36:49.938Z,11.17
2017-08-17T15:39:17.451Z,10.97
2017-08-17T15:41:45.472Z,11.23
2017-08-17T15:44:13.009Z,10.60
2017-08-17T15:46:40.538Z,10.37
2017-08-17T15:49:08.056Z,11.57
2017-08-17T15:51:35.591Z,11.87
2017-08-17T15:54:03.128Z,11.70
2017-08-17T15:56:30.643Z,12.33
2017-08-17T15:58:58.192Z,10.60
2017-08-17T16:01:25.702Z,12.20
2017-08-17T16:03:53.211Z,10.73
2017-08-17T16:06:20.747Z,11.50
2017-08-17T16:08:48.274Z,11.23
2017-08-17T16:11:15.820Z,11.10
2017-08-17T16:13:43.351Z,12.27
2017-08-17T16:16:10.871Z,12.03
2017-08-17T16:18:38.429Z,9.83
2017-08-17T16:21:06.006Z,12.37
2017-08-17T16:23:33.543Z,11.90
2017-08-17T16:26:01.087Z,11.50
2017-08-17T16:28:28.675Z,11.67
2017-08-17T16:30:56.210Z,12.17
2017-08-17T16:33:23.688Z,12.03
2017-08-17T16:35:51.231Z,11.97
2017-08-17T16:38:18.774Z,11.73
2017-08-17T16:40:46.286Z,11.40
2017-08-17T16:43:13.808Z,12.40
2017-08-17T16:45:41.342Z,12.47
2017-08-17T16:48:08.880Z,11.97
2017-08-17T16:50:36.409Z,11.73
2017-08-17T16:53:03.923Z,12.03
2017-08-17T16:55:31.458Z,12.03
2017-08-17T16:57:58.971Z,11.53
2017-08-17T17:00:26.482Z,11.63
2017-08-17T17:02:54.035Z,10.80
2017-08-17T17:05:21.555Z,11.93
2017-08-17T17:07:49.083Z,13.53
2017-08-17T17:10:16.627Z,11.17
2017-08-17T17:12:44.143Z,12.10
2017-08-17T17:15:11.691Z,10.67
2017-08-17T17:17:39.868Z,11.93
2017-08-17T17:20:07.387Z,11.17
2017-08-17T17:22:34.919Z,11.53
2017-08-17T17:25:02.496Z,11.83
2017-08-17T17:27:30.041Z,11.33
2017-08-17T17:29:57.555Z,10.73
2017-08-17T17:32:25.102Z,10.80
2017-08-17T17:34:52.630Z,11.20
2017-08-17T17:37:20.148Z,11.30
2017-08-17T17:39:47.691Z,12.00
2017-08-17T17:42:15.211Z,10.40
2017-08-17T17:44:42.723Z,12.33
2017-08-17T17:47:10.267Z,10.63
2017-08-17T17:49:37.783Z,11.30
2017-08-17T17:52:05.294Z,11.70
2017-08-17T17:54:32.843Z,10.97
2017-08-17T17:57:00.355Z,11.13
2017-08-17T17:59:27.866Z,11.90
2017-08-17T18:01:55.407Z,12.00
2017-08-17T18:04:22.919Z,11.53
2017-08-17T18:06:50.435Z,12.20
2017-08-17T18:09:17.979Z,11.70
2017-08-17T18:11:45.499Z,11.37
2017-08-17T18:14:13.014Z,12.20
2017-08-17T18:16:40.563Z,12.50
2017-08-17T18:19:08.092Z,10.83
2017-08-17T18:21:35.605Z,12.63
2017-08-17T18:24:03.149Z,12.13
2017-08-17T18:26:30.671Z,12.17
2017-08-17T18:28:58.188Z,12.07
2017-08-17T18:31:25.735Z,12.60
2017-08-17T18:33:53.246Z,12.30
2017-08-17T18:36:20.767Z,12.90
2017-08-17T18:38:48.319Z,11.87
2017-08-17T18:41:15.835Z,12.63
2017-08-17T18:43:43.355Z,11.87
2017-08-17T18:46:10.890Z,13.60
2017-08-17T18:48:38.408Z,11.87
2017-08-17T18:51:05.927Z,12.70
2017-08-17T18:53:33.471Z,13.17
2017-08-17T18:56:00.983Z,13.00
2017-08-17T18:58:28.495Z,12.73
2017-08-17T19:00:56.039Z,12.90
2017-08-17T19:03:23.559Z,11.27
2017-08-17T19:05:51.121Z,13.13
2017-08-17T19:08:18.663Z,13.07
2017-08-17T19:10:46.195Z,13.60
2017-08-17T19:13:13.707Z,14.20
2017-08-17T19:15:41.250Z,13.93
2017-08-17T19:18:08.767Z,13.60
2017-08-17T19:20:36.286Z,12.43
2017-08-17T19:23:03.818Z,12.57
2017-08-17T19:25:31.339Z,13.23
2017-08-17T19:27:58.863Z,14.10
2017-08-17T19:30:26.398Z,13.80
2017-08-17T19:32:53.910Z,13.23
2017-08-17T19:35:21.420Z,13.87
2017-08-17T19:37:49.007Z,13.90
2017-08-17T19:40:16.527Z,13.33
2017-08-17T19:42:44.071Z,13.40
2017-08-17T19:45:11.626Z,12.93
2017-08-17T19:47:39.138Z,13.53
2017-08-17T19:50:06.666Z,13.60
2017-08-17T19:52:34.216Z,13.10
2017-08-17T19:55:01.751Z,12.77
2017-08-17T19:57:29.266Z,14.63
2017-08-17T19:59:56.803Z,13.80
2017-08-17T20:02:24.323Z,13.30
2017-08-17T20:04:51.845Z,13.90
2017-08-17T20:07:19.394Z,13.53
2017-08-17T20:09:46.923Z,13.77
2017-08-17T20:12:14.478Z,13.57
2017-08-17T20:14:42.043Z,14.30
2017-08-17T20:17:09.558Z,14.00
2017-08-17T20:19:37.095Z,15.10
2017-08-17T20:22:04.640Z,14.07
2017-08-17T20:24:32.164Z,14.97
2017-08-17T20:26:59.691Z,15.20
2017-08-17T20:29:27.227Z,14.47
2017-08-17T20:31:54.752Z,14.83
2017-08-17T20:34:22.344Z,14.23
2017-08-17T20:36:49.923Z,14.77
2017-08-17T20:39:17.547Z,14.73
2017-08-17T20:41:45.108Z,15.90
2017-08-17T20:44:12.651Z,16.53
2017-08-17T20:46:40.171Z,17.00
2017-08-17T20:49:07.837Z,16.20
2017-08-17T20:51:35.418Z,14.80
2017-08-17T20:54:02.934Z,16.40
2017-08-17T20:56:30.411Z,21.87
2017-08-17T20:58:57.987Z,21.90
2017-08-17T21:01:25.506Z,19.30
2017-08-17T21:03:53.028Z,20.03
2017-08-17T21:06:20.599Z,17.47
2017-08-17T21:08:48.119Z,18.07
2017-08-17T21:11:15.636Z,18.47
2017-08-17T21:13:43.179Z,20.10
2017-08-17T21:16:10.704Z,20.13
2017-08-17T21:18:38.223Z,17.80
2017-08-17T21:21:05.758Z,17.37
2017-08-17T21:23:33.275Z,19.20
2017-08-17T21:26:00.819Z,15.93
2017-08-17T21:28:28.344Z,17.30
2017-08-17T21:30:55.866Z,17.43
2017-08-17T21:33:23.435Z,17.33
2017-08-17T21:35:50.959Z,18.50
2017-08-17T21:38:18.482Z,16.43
2017-08-17T21:40:46.026Z,15.90
2017-08-17T21:43:13.544Z,16.17
2017-08-17T21:45:41.084Z,17.10
2017-08-17T21:48:08.615Z,17.43
2017-08-17T21:50:36.123Z,17.70
2017-08-17T21:53:03.663Z,19.27
2017-08-17T21:55:31.167Z,21.83
2017-08-17T21:57:58.679Z,23.53
2017-08-17T22:00:26.211Z,28.80
2017-08-17T22:02:53.756Z,27.30
2017-08-17T22:05:21.291Z,25.40
2017-08-17T22:07:48.803Z,22.13
2017-08-17T22:10:16.310Z,18.80
2017-08-17T22:12:44.422Z,19.90
2017-08-17T22:15:11.940Z,20.00
2017-08-17T22:17:39.458Z,19.13
2017-08-17T22:20:06.995Z,18.40
2017-08-17T22:22:34.538Z,18.83
2017-08-17T22:25:02.052Z,18.20
2017-08-17T22:27:29.561Z,17.60
2017-08-17T22:29:57.100Z,19.20
2017-08-17T22:32:24.612Z,18.00
2017-08-17T22:34:52.114Z,18.83
2017-08-17T22:37:19.651Z,18.83
2017-08-17T22:39:47.163Z,18.30
2017-08-17T22:42:14.675Z,19.50
2017-08-17T22:44:42.216Z,18.83
2017-08-17T22:47:09.731Z,19.70
2017-08-17T22:49:37.255Z,18.87
2017-08-17T22:52:04.792Z,18.77
2017-08-17T22:54:32.267Z,20.70
2017-08-17T22:56:59.807Z,18.73
2017-08-17T22:59:27.343Z,20.80
2017-08-17T23:01:54.854Z,20.50
2017-08-17T23:04:22.367Z,20.20
2017-08-17T23:06:49.912Z,20.50
2017-08-17T23:09:17.427Z,21.93
2017-08-17T23:11:44.967Z,26.60
2017-08-17T23:14:12.487Z,30.30
2017-08-17T23:16:40.002Z,31.90
2017-08-17T23:19:07.551Z,35.07
2017-08-17T23:21:35.066Z,33.37
2017-08-17T23:24:02.592Z,29.47
2017-08-17T23:26:30.126Z,30.57
2017-08-17T23:28:57.667Z,29.10
2017-08-17T23:31:25.183Z,27.60
2017-08-17T23:33:52.719Z,26.80
2017-08-17T23:36:20.226Z,26.23
2017-08-17T23:38:47.756Z,30.20
2017-08-17T23:41:15.304Z,31.53
2017-08-17T23:43:42.828Z,30.93
2017-08-17T23:46:10.351Z,33.37
2017-08-17T23:48:37.895Z,31.43
2017-08-17T23:51:05.415Z,30.00
2017-08-17T23:53:32.929Z,26.80
2017-08-17T23:56:00.476Z,28.00
2017-08-17T23:58:27.991Z,25.83
